<?xml version="1.0" encoding="UTF-8" standalone="no" ?>
<gpx xmlns="http://www.topografix.com/GPX/1/1" xmlns:xsi="http://www.w3.org/2001/XMLSchema-instance" xsi:schemaLocation="http://www.topografix.com/GPX/1/1 http://www.topografix.com/GPX/1/1/gpx.xsd" version="1.1" creator="VisuGPX - https://www.visugpx.com">
  <metadata>
    <name>la Baume Cornillane pas de la Croix</name>
    <desc><![CDATA[File with points/tracks from Locus Map/3.20.1]]></desc>
  </metadata>
  <trk>
    <name><![CDATA[F26120 la Baume C. pas de la Croix]]></name>
    <trkseg>
      <trkpt lat="44.82374" lon="5.03928">
        <ele>318.06</ele>
        <time>2016-12-07T12:09:27.823Z</time>
      </trkpt>
      <trkpt lat="44.82365" lon="5.03956">
        <ele>321.23</ele>
        <time>2016-12-07T12:09:51.584Z</time>
      </trkpt>
      <trkpt lat="44.82352" lon="5.03985">
        <ele>325.08</ele>
        <time>2016-12-07T12:10:12.636Z</time>
      </trkpt>
      <trkpt lat="44.82327" lon="5.0398">
        <ele>326.61</ele>
        <time>2016-12-07T12:10:27.784Z</time>
      </trkpt>
      <trkpt lat="44.82313" lon="5.03955">
        <ele>325.62</ele>
        <time>2016-12-07T12:10:53.734Z</time>
      </trkpt>
      <trkpt lat="44.82323" lon="5.03986">
        <ele>327.36</ele>
        <time>2016-12-07T12:12:04.602Z</time>
      </trkpt>
      <trkpt lat="44.82333" lon="5.04015">
        <ele>329.36</ele>
        <time>2016-12-07T12:12:57.739Z</time>
      </trkpt>
      <trkpt lat="44.82341" lon="5.04046">
        <ele>331.87</ele>
        <time>2016-12-07T12:13:35.703Z</time>
      </trkpt>
      <trkpt lat="44.82348" lon="5.04076">
        <ele>335.48</ele>
        <time>2016-12-07T12:14:08.754Z</time>
      </trkpt>
      <trkpt lat="44.82362" lon="5.04102">
        <ele>339.42</ele>
        <time>2016-12-07T12:14:39.689Z</time>
      </trkpt>
      <trkpt lat="44.82366" lon="5.04134">
        <ele>346.21</ele>
        <time>2016-12-07T12:15:05.806Z</time>
      </trkpt>
      <trkpt lat="44.82366" lon="5.04166">
        <ele>353.83</ele>
        <time>2016-12-07T12:15:34.758Z</time>
      </trkpt>
      <trkpt lat="44.8236" lon="5.042">
        <ele>363.03</ele>
        <time>2016-12-07T12:16:41.730Z</time>
      </trkpt>
      <trkpt lat="44.82379" lon="5.0422">
        <ele>366.22</ele>
        <time>2016-12-07T12:17:45.603Z</time>
      </trkpt>
      <trkpt lat="44.82383" lon="5.04252">
        <ele>372.72</ele>
        <time>2016-12-07T12:18:00.760Z</time>
      </trkpt>
      <trkpt lat="44.8238" lon="5.04283">
        <ele>379.59</ele>
        <time>2016-12-07T12:18:20.785Z</time>
      </trkpt>
      <trkpt lat="44.82372" lon="5.04315">
        <ele>385.5</ele>
        <time>2016-12-07T12:18:41.786Z</time>
      </trkpt>
      <trkpt lat="44.82379" lon="5.04346">
        <ele>386.76</ele>
        <time>2016-12-07T12:19:22.771Z</time>
      </trkpt>
      <trkpt lat="44.82357" lon="5.04354">
        <ele>387.48</ele>
        <time>2016-12-07T12:20:09.750Z</time>
      </trkpt>
      <trkpt lat="44.82337" lon="5.04337">
        <ele>388.12</ele>
        <time>2016-12-07T12:21:35.799Z</time>
      </trkpt>
      <trkpt lat="44.82321" lon="5.04314">
        <ele>386.44</ele>
        <time>2016-12-07T12:21:57.614Z</time>
      </trkpt>
      <trkpt lat="44.82334" lon="5.04341">
        <ele>387.96</ele>
        <time>2016-12-07T12:25:44.595Z</time>
      </trkpt>
      <trkpt lat="44.82336" lon="5.04374">
        <ele>385.33</ele>
        <time>2016-12-07T12:25:58.570Z</time>
      </trkpt>
      <trkpt lat="44.82357" lon="5.04385">
        <ele>384.57</ele>
        <time>2016-12-07T12:27:05.772Z</time>
      </trkpt>
      <trkpt lat="44.82381" lon="5.0438">
        <ele>385.14</ele>
        <time>2016-12-07T12:28:00.792Z</time>
      </trkpt>
      <trkpt lat="44.82403" lon="5.04371">
        <ele>385.47</ele>
        <time>2016-12-07T12:28:15.789Z</time>
      </trkpt>
      <trkpt lat="44.82427" lon="5.04369">
        <ele>385.49</ele>
        <time>2016-12-07T12:28:29.791Z</time>
      </trkpt>
      <trkpt lat="44.82449" lon="5.0436">
        <ele>385.2</ele>
        <time>2016-12-07T12:28:47.794Z</time>
      </trkpt>
      <trkpt lat="44.82468" lon="5.04377">
        <ele>386.32</ele>
        <time>2016-12-07T12:29:13.796Z</time>
      </trkpt>
      <trkpt lat="44.82491" lon="5.04381">
        <ele>387.32</ele>
        <time>2016-12-07T12:29:32.795Z</time>
      </trkpt>
      <trkpt lat="44.82514" lon="5.04372">
        <ele>387.66</ele>
        <time>2016-12-07T12:30:08.795Z</time>
      </trkpt>
      <trkpt lat="44.82537" lon="5.04371">
        <ele>388.9</ele>
        <time>2016-12-07T12:30:57.623Z</time>
      </trkpt>
      <trkpt lat="44.82561" lon="5.04374">
        <ele>390.82</ele>
        <time>2016-12-07T12:31:09.789Z</time>
      </trkpt>
      <trkpt lat="44.82582" lon="5.04359">
        <ele>390.03</ele>
        <time>2016-12-07T12:34:10.594Z</time>
      </trkpt>
      <trkpt lat="44.82602" lon="5.04375">
        <ele>393.37</ele>
        <time>2016-12-07T12:34:47.763Z</time>
      </trkpt>
      <trkpt lat="44.82625" lon="5.04374">
        <ele>394.35</ele>
        <time>2016-12-07T12:35:03.592Z</time>
      </trkpt>
      <trkpt lat="44.82646" lon="5.04362">
        <ele>393.39</ele>
        <time>2016-12-07T12:35:29.777Z</time>
      </trkpt>
      <trkpt lat="44.82651" lon="5.04394">
        <ele>398.23</ele>
        <time>2016-12-07T12:36:28.634Z</time>
      </trkpt>
      <trkpt lat="44.82656" lon="5.04425">
        <ele>401.2</ele>
        <time>2016-12-07T12:36:53.618Z</time>
      </trkpt>
      <trkpt lat="44.82658" lon="5.04457">
        <ele>401.59</ele>
        <time>2016-12-07T12:37:40.603Z</time>
      </trkpt>
      <trkpt lat="44.82663" lon="5.04488">
        <ele>401.08</ele>
        <time>2016-12-07T12:38:38.678Z</time>
      </trkpt>
      <trkpt lat="44.82673" lon="5.04519">
        <ele>400.97</ele>
        <time>2016-12-07T12:39:01.617Z</time>
      </trkpt>
      <trkpt lat="44.82687" lon="5.04549">
        <ele>400.44</ele>
        <time>2016-12-07T12:39:19.746Z</time>
      </trkpt>
      <trkpt lat="44.82693" lon="5.04581">
        <ele>399.4</ele>
        <time>2016-12-07T12:39:42.717Z</time>
      </trkpt>
      <trkpt lat="44.827" lon="5.04613">
        <ele>397.41</ele>
        <time>2016-12-07T12:40:04.592Z</time>
      </trkpt>
      <trkpt lat="44.82702" lon="5.04645">
        <ele>395.31</ele>
        <time>2016-12-07T12:40:23.630Z</time>
      </trkpt>
      <trkpt lat="44.82693" lon="5.04676">
        <ele>394.1</ele>
        <time>2016-12-07T12:40:43.617Z</time>
      </trkpt>
      <trkpt lat="44.82695" lon="5.04709">
        <ele>392.6</ele>
        <time>2016-12-07T12:41:01.772Z</time>
      </trkpt>
      <trkpt lat="44.82701" lon="5.0474">
        <ele>391.28</ele>
        <time>2016-12-07T12:41:16.619Z</time>
      </trkpt>
      <trkpt lat="44.82697" lon="5.04771">
        <ele>391.14</ele>
        <time>2016-12-07T12:41:35.799Z</time>
      </trkpt>
      <trkpt lat="44.82673" lon="5.04781">
        <ele>391.81</ele>
        <time>2016-12-07T12:41:52.785Z</time>
      </trkpt>
      <trkpt lat="44.82651" lon="5.04775">
        <ele>391.16</ele>
        <time>2016-12-07T12:42:07.663Z</time>
      </trkpt>
      <trkpt lat="44.82628" lon="5.04786">
        <ele>389.46</ele>
        <time>2016-12-07T12:42:33.617Z</time>
      </trkpt>
      <trkpt lat="44.8262" lon="5.04818">
        <ele>389.96</ele>
        <time>2016-12-07T12:42:54.714Z</time>
      </trkpt>
      <trkpt lat="44.8261" lon="5.04848">
        <ele>391.21</ele>
        <time>2016-12-07T12:43:13.780Z</time>
      </trkpt>
      <trkpt lat="44.82601" lon="5.04878">
        <ele>393.38</ele>
        <time>2016-12-07T12:43:33.690Z</time>
      </trkpt>
      <trkpt lat="44.82591" lon="5.04908">
        <ele>396.33</ele>
        <time>2016-12-07T12:43:58.791Z</time>
      </trkpt>
      <trkpt lat="44.82583" lon="5.04938">
        <ele>400.4</ele>
        <time>2016-12-07T12:44:17.787Z</time>
      </trkpt>
      <trkpt lat="44.82574" lon="5.0497">
        <ele>405.45</ele>
        <time>2016-12-07T12:44:40.733Z</time>
      </trkpt>
      <trkpt lat="44.82559" lon="5.04994">
        <ele>407.23</ele>
        <time>2016-12-07T12:45:10.798Z</time>
      </trkpt>
      <trkpt lat="44.82545" lon="5.0502">
        <ele>406.75</ele>
        <time>2016-12-07T12:45:35.809Z</time>
      </trkpt>
      <trkpt lat="44.82561" lon="5.05047">
        <ele>410.34</ele>
        <time>2016-12-07T12:46:52.788Z</time>
      </trkpt>
      <trkpt lat="44.82577" lon="5.05069">
        <ele>413.86</ele>
        <time>2016-12-07T12:47:09.785Z</time>
      </trkpt>
      <trkpt lat="44.82594" lon="5.05092">
        <ele>416.58</ele>
        <time>2016-12-07T12:47:30.792Z</time>
      </trkpt>
      <trkpt lat="44.82611" lon="5.05113">
        <ele>417.55</ele>
        <time>2016-12-07T12:47:42.803Z</time>
      </trkpt>
      <trkpt lat="44.82622" lon="5.05141">
        <ele>415.81</ele>
        <time>2016-12-07T12:47:57.789Z</time>
      </trkpt>
      <trkpt lat="44.8263" lon="5.05174">
        <ele>415.12</ele>
        <time>2016-12-07T12:48:17.854Z</time>
      </trkpt>
      <trkpt lat="44.82643" lon="5.052">
        <ele>417.38</ele>
        <time>2016-12-07T12:48:34.597Z</time>
      </trkpt>
      <trkpt lat="44.82642" lon="5.05234">
        <ele>419.63</ele>
        <time>2016-12-07T12:48:52.769Z</time>
      </trkpt>
      <trkpt lat="44.82654" lon="5.05262">
        <ele>422.23</ele>
        <time>2016-12-07T12:49:13.715Z</time>
      </trkpt>
      <trkpt lat="44.82642" lon="5.05291">
        <ele>424.15</ele>
        <time>2016-12-07T12:50:27.824Z</time>
      </trkpt>
      <trkpt lat="44.82633" lon="5.05322">
        <ele>426.77</ele>
        <time>2016-12-07T12:51:07.802Z</time>
      </trkpt>
      <trkpt lat="44.82612" lon="5.0534">
        <ele>427.66</ele>
        <time>2016-12-07T12:51:19.754Z</time>
      </trkpt>
      <trkpt lat="44.82595" lon="5.05361">
        <ele>428.42</ele>
        <time>2016-12-07T12:51:44.788Z</time>
      </trkpt>
      <trkpt lat="44.82593" lon="5.05394">
        <ele>430.89</ele>
        <time>2016-12-07T12:52:08.777Z</time>
      </trkpt>
      <trkpt lat="44.82592" lon="5.05428">
        <ele>432.98</ele>
        <time>2016-12-07T12:52:32.790Z</time>
      </trkpt>
      <trkpt lat="44.82598" lon="5.05459">
        <ele>435.55</ele>
        <time>2016-12-07T12:52:58.789Z</time>
      </trkpt>
      <trkpt lat="44.8261" lon="5.05486">
        <ele>439.19</ele>
        <time>2016-12-07T12:53:23.786Z</time>
      </trkpt>
      <trkpt lat="44.82625" lon="5.05511">
        <ele>443.75</ele>
        <time>2016-12-07T12:53:43.766Z</time>
      </trkpt>
      <trkpt lat="44.8263" lon="5.05546">
        <ele>447.2</ele>
        <time>2016-12-07T12:54:11.794Z</time>
      </trkpt>
      <trkpt lat="44.82651" lon="5.05561">
        <ele>454.82</ele>
        <time>2016-12-07T12:55:10.794Z</time>
      </trkpt>
      <trkpt lat="44.8267" lon="5.05581">
        <ele>462.63</ele>
        <time>2016-12-07T12:55:37.783Z</time>
      </trkpt>
      <trkpt lat="44.8268" lon="5.05612">
        <ele>469.49</ele>
        <time>2016-12-07T12:56:11.628Z</time>
      </trkpt>
      <trkpt lat="44.82682" lon="5.05644">
        <ele>473.96</ele>
        <time>2016-12-07T12:56:48.572Z</time>
      </trkpt>
      <trkpt lat="44.82685" lon="5.05677">
        <ele>478.69</ele>
        <time>2016-12-07T12:57:16.716Z</time>
      </trkpt>
      <trkpt lat="44.82688" lon="5.05711">
        <ele>484.08</ele>
        <time>2016-12-07T12:57:46.612Z</time>
      </trkpt>
      <trkpt lat="44.82687" lon="5.05745">
        <ele>488.55</ele>
        <time>2016-12-07T12:58:17.891Z</time>
      </trkpt>
      <trkpt lat="44.8269" lon="5.05778">
        <ele>494.57</ele>
        <time>2016-12-07T12:58:51.590Z</time>
      </trkpt>
      <trkpt lat="44.82687" lon="5.05811">
        <ele>498.2</ele>
        <time>2016-12-07T12:59:35.768Z</time>
      </trkpt>
      <trkpt lat="44.82686" lon="5.05844">
        <ele>503.48</ele>
        <time>2016-12-07T13:00:31.623Z</time>
      </trkpt>
      <trkpt lat="44.82671" lon="5.05873">
        <ele>504.04</ele>
        <time>2016-12-07T13:01:36.769Z</time>
      </trkpt>
      <trkpt lat="44.82672" lon="5.05905">
        <ele>511.25</ele>
        <time>2016-12-07T13:01:55.735Z</time>
      </trkpt>
      <trkpt lat="44.82669" lon="5.05936">
        <ele>515.65</ele>
        <time>2016-12-07T13:02:28.622Z</time>
      </trkpt>
      <trkpt lat="44.8268" lon="5.05964">
        <ele>521.34</ele>
        <time>2016-12-07T13:03:26.781Z</time>
      </trkpt>
      <trkpt lat="44.82695" lon="5.0599">
        <ele>524.39</ele>
        <time>2016-12-07T13:03:48.734Z</time>
      </trkpt>
      <trkpt lat="44.82705" lon="5.06021">
        <ele>524.91</ele>
        <time>2016-12-07T13:06:15.612Z</time>
      </trkpt>
      <trkpt lat="44.82703" lon="5.06054">
        <ele>525.55</ele>
        <time>2016-12-07T13:06:35.752Z</time>
      </trkpt>
      <trkpt lat="44.82693" lon="5.06083">
        <ele>527.55</ele>
        <time>2016-12-07T13:06:53.598Z</time>
      </trkpt>
      <trkpt lat="44.82685" lon="5.06113">
        <ele>529.55</ele>
        <time>2016-12-07T13:08:32.635Z</time>
      </trkpt>
      <trkpt lat="44.82679" lon="5.06146">
        <ele>531.72</ele>
        <time>2016-12-07T13:08:52.783Z</time>
      </trkpt>
      <trkpt lat="44.82675" lon="5.06178">
        <ele>535.47</ele>
        <time>2016-12-07T13:09:14.778Z</time>
      </trkpt>
      <trkpt lat="44.82677" lon="5.0621">
        <ele>540.9</ele>
        <time>2016-12-07T13:09:38.782Z</time>
      </trkpt>
      <trkpt lat="44.82666" lon="5.06238">
        <ele>546.75</ele>
        <time>2016-12-07T13:10:14.623Z</time>
      </trkpt>
      <trkpt lat="44.82663" lon="5.06271">
        <ele>552.67</ele>
        <time>2016-12-07T13:11:03.780Z</time>
      </trkpt>
      <trkpt lat="44.82659" lon="5.06306">
        <ele>558.89</ele>
        <time>2016-12-07T13:11:43.701Z</time>
      </trkpt>
      <trkpt lat="44.82652" lon="5.06337">
        <ele>564.41</ele>
        <time>2016-12-07T13:12:16.745Z</time>
      </trkpt>
      <trkpt lat="44.82652" lon="5.06373">
        <ele>570.85</ele>
        <time>2016-12-07T13:13:04.784Z</time>
      </trkpt>
      <trkpt lat="44.82645" lon="5.06404">
        <ele>576.34</ele>
        <time>2016-12-07T13:13:35.712Z</time>
      </trkpt>
      <trkpt lat="44.82654" lon="5.06436">
        <ele>582.93</ele>
        <time>2016-12-07T13:14:12.750Z</time>
      </trkpt>
      <trkpt lat="44.82659" lon="5.06468">
        <ele>590.02</ele>
        <time>2016-12-07T13:14:47.758Z</time>
      </trkpt>
      <trkpt lat="44.8266" lon="5.06501">
        <ele>597.38</ele>
        <time>2016-12-07T13:16:20.776Z</time>
      </trkpt>
      <trkpt lat="44.82663" lon="5.06534">
        <ele>604.6</ele>
        <time>2016-12-07T13:20:09.754Z</time>
      </trkpt>
      <trkpt lat="44.82669" lon="5.06564">
        <ele>611.48</ele>
        <time>2016-12-07T13:20:57.774Z</time>
      </trkpt>
      <trkpt lat="44.8267" lon="5.06598">
        <ele>619.24</ele>
        <time>2016-12-07T13:21:21.763Z</time>
      </trkpt>
      <trkpt lat="44.82666" lon="5.06632">
        <ele>627.96</ele>
        <time>2016-12-07T13:22:34.761Z</time>
      </trkpt>
      <trkpt lat="44.82664" lon="5.06664">
        <ele>635.39</ele>
        <time>2016-12-07T13:23:36.771Z</time>
      </trkpt>
      <trkpt lat="44.82653" lon="5.06694">
        <ele>640.51</ele>
        <time>2016-12-07T13:24:32.872Z</time>
      </trkpt>
      <trkpt lat="44.82644" lon="5.06724">
        <ele>644.16</ele>
        <time>2016-12-07T13:24:51.761Z</time>
      </trkpt>
      <trkpt lat="44.82642" lon="5.06757">
        <ele>650.34</ele>
        <time>2016-12-07T13:25:25.782Z</time>
      </trkpt>
      <trkpt lat="44.82639" lon="5.06789">
        <ele>658.2</ele>
        <time>2016-12-07T13:25:55.743Z</time>
      </trkpt>
      <trkpt lat="44.82643" lon="5.06821">
        <ele>668.27</ele>
        <time>2016-12-07T13:26:53.753Z</time>
      </trkpt>
      <trkpt lat="44.82655" lon="5.06848">
        <ele>678.32</ele>
        <time>2016-12-07T13:27:51.669Z</time>
      </trkpt>
      <trkpt lat="44.82675" lon="5.06867">
        <ele>685.9</ele>
        <time>2016-12-07T13:28:33.776Z</time>
      </trkpt>
      <trkpt lat="44.82678" lon="5.06901">
        <ele>699.03</ele>
        <time>2016-12-07T13:28:55.759Z</time>
      </trkpt>
      <trkpt lat="44.827" lon="5.06915">
        <ele>704.05</ele>
        <time>2016-12-07T13:29:27.744Z</time>
      </trkpt>
      <trkpt lat="44.82722" lon="5.06933">
        <ele>710.4</ele>
        <time>2016-12-07T13:30:34.762Z</time>
      </trkpt>
      <trkpt lat="44.82739" lon="5.06954">
        <ele>718.84</ele>
        <time>2016-12-07T13:31:13.766Z</time>
      </trkpt>
      <trkpt lat="44.8276" lon="5.0697">
        <ele>725.94</ele>
        <time>2016-12-07T13:31:37.820Z</time>
      </trkpt>
      <trkpt lat="44.82785" lon="5.06983">
        <ele>730.67</ele>
        <time>2016-12-07T13:31:53.825Z</time>
      </trkpt>
      <trkpt lat="44.82809" lon="5.07002">
        <ele>739.12</ele>
        <time>2016-12-07T13:33:28.753Z</time>
      </trkpt>
      <trkpt lat="44.82829" lon="5.07018">
        <ele>746.33</ele>
        <time>2016-12-07T13:34:21.789Z</time>
      </trkpt>
      <trkpt lat="44.82849" lon="5.07032">
        <ele>753.81</ele>
        <time>2016-12-07T13:35:06.736Z</time>
      </trkpt>
      <trkpt lat="44.82862" lon="5.07058">
        <ele>770.03</ele>
        <time>2016-12-07T13:35:22.734Z</time>
      </trkpt>
      <trkpt lat="44.82884" lon="5.07073">
        <ele>777.89</ele>
        <time>2016-12-07T13:35:53.768Z</time>
      </trkpt>
      <trkpt lat="44.82903" lon="5.0709">
        <ele>785.28</ele>
        <time>2016-12-07T13:37:04.555Z</time>
      </trkpt>
      <trkpt lat="44.82922" lon="5.07111">
        <ele>793.24</ele>
        <time>2016-12-07T13:39:08.739Z</time>
      </trkpt>
      <trkpt lat="44.82935" lon="5.07137">
        <ele>803.55</ele>
        <time>2016-12-07T13:39:14.767Z</time>
      </trkpt>
      <trkpt lat="44.82955" lon="5.07156">
        <ele>808.85</ele>
        <time>2016-12-07T13:39:28.730Z</time>
      </trkpt>
      <trkpt lat="44.82972" lon="5.07178">
        <ele>816.61</ele>
        <time>2016-12-07T13:39:43.730Z</time>
      </trkpt>
      <trkpt lat="44.82996" lon="5.07182">
        <ele>813.22</ele>
        <time>2016-12-07T13:40:11.728Z</time>
      </trkpt>
      <trkpt lat="44.8301" lon="5.07206">
        <ele>824.06</ele>
        <time>2016-12-07T13:43:06.762Z</time>
      </trkpt>
      <trkpt lat="44.83023" lon="5.07237">
        <ele>838.04</ele>
        <time>2016-12-07T13:43:19.754Z</time>
      </trkpt>
      <trkpt lat="44.83042" lon="5.07255">
        <ele>844.95</ele>
        <time>2016-12-07T13:43:41.763Z</time>
      </trkpt>
      <trkpt lat="44.83048" lon="5.07287">
        <ele>862.09</ele>
        <time>2016-12-07T13:45:15.763Z</time>
      </trkpt>
      <trkpt lat="44.83068" lon="5.07307">
        <ele>869.99</ele>
        <time>2016-12-07T13:46:35.751Z</time>
      </trkpt>
      <trkpt lat="44.83092" lon="5.0731">
        <ele>868.71</ele>
        <time>2016-12-07T13:46:44.743Z</time>
      </trkpt>
      <trkpt lat="44.83118" lon="5.07322">
        <ele>870.77</ele>
        <time>2016-12-07T13:46:57.756Z</time>
      </trkpt>
      <trkpt lat="44.83141" lon="5.0732">
        <ele>867.64</ele>
        <time>2016-12-07T13:47:13.759Z</time>
      </trkpt>
      <trkpt lat="44.83161" lon="5.07339">
        <ele>871.36</ele>
        <time>2016-12-07T13:48:18.592Z</time>
      </trkpt>
      <trkpt lat="44.83185" lon="5.07332">
        <ele>869.77</ele>
        <time>2016-12-07T13:48:44.745Z</time>
      </trkpt>
      <trkpt lat="44.83164" lon="5.07347">
        <ele>872.27</ele>
        <time>2016-12-07T13:57:02.759Z</time>
      </trkpt>
      <trkpt lat="44.83141" lon="5.07348">
        <ele>874.36</ele>
        <time>2016-12-07T13:57:23.763Z</time>
      </trkpt>
      <trkpt lat="44.83118" lon="5.07349">
        <ele>877.75</ele>
        <time>2016-12-07T13:57:50.729Z</time>
      </trkpt>
      <trkpt lat="44.83095" lon="5.07357">
        <ele>882.64</ele>
        <time>2016-12-07T13:58:21.728Z</time>
      </trkpt>
      <trkpt lat="44.83072" lon="5.07359">
        <ele>886.58</ele>
        <time>2016-12-07T13:58:45.733Z</time>
      </trkpt>
      <trkpt lat="44.83051" lon="5.07373">
        <ele>892.07</ele>
        <time>2016-12-07T13:59:32.788Z</time>
      </trkpt>
      <trkpt lat="44.83028" lon="5.07368">
        <ele>895.13</ele>
        <time>2016-12-07T14:00:07.756Z</time>
      </trkpt>
      <trkpt lat="44.83005" lon="5.07373">
        <ele>899.9</ele>
        <time>2016-12-07T14:00:32.770Z</time>
      </trkpt>
      <trkpt lat="44.82983" lon="5.07373">
        <ele>904.56</ele>
        <time>2016-12-07T14:01:06.751Z</time>
      </trkpt>
      <trkpt lat="44.8296" lon="5.07372">
        <ele>909.81</ele>
        <time>2016-12-07T14:01:33.759Z</time>
      </trkpt>
      <trkpt lat="44.82937" lon="5.07377">
        <ele>915.6</ele>
        <time>2016-12-07T14:02:07.561Z</time>
      </trkpt>
      <trkpt lat="44.82915" lon="5.07365">
        <ele>917.44</ele>
        <time>2016-12-07T14:03:21.769Z</time>
      </trkpt>
      <trkpt lat="44.82893" lon="5.07354">
        <ele>917.93</ele>
        <time>2016-12-07T14:03:42.771Z</time>
      </trkpt>
      <trkpt lat="44.82871" lon="5.0734">
        <ele>917.48</ele>
        <time>2016-12-07T14:05:03.836Z</time>
      </trkpt>
      <trkpt lat="44.82853" lon="5.07319">
        <ele>913.61</ele>
        <time>2016-12-07T14:05:17.764Z</time>
      </trkpt>
      <trkpt lat="44.82873" lon="5.07337">
        <ele>916.59</ele>
        <time>2016-12-07T14:17:44.715Z</time>
      </trkpt>
      <trkpt lat="44.82892" lon="5.07356">
        <ele>918.39</ele>
        <time>2016-12-07T14:19:23.717Z</time>
      </trkpt>
      <trkpt lat="44.82915" lon="5.07361">
        <ele>916.68</ele>
        <time>2016-12-07T14:20:01.717Z</time>
      </trkpt>
      <trkpt lat="44.82937" lon="5.07369">
        <ele>914.43</ele>
        <time>2016-12-07T14:20:21.753Z</time>
      </trkpt>
      <trkpt lat="44.8296" lon="5.07369">
        <ele>909.38</ele>
        <time>2016-12-07T14:20:48.558Z</time>
      </trkpt>
      <trkpt lat="44.82982" lon="5.07377">
        <ele>905.37</ele>
        <time>2016-12-07T14:22:00.735Z</time>
      </trkpt>
      <trkpt lat="44.83005" lon="5.07369">
        <ele>899.29</ele>
        <time>2016-12-07T14:22:23.588Z</time>
      </trkpt>
      <trkpt lat="44.83028" lon="5.07363">
        <ele>894.08</ele>
        <time>2016-12-07T14:22:47.820Z</time>
      </trkpt>
      <trkpt lat="44.83051" lon="5.07376">
        <ele>892.45</ele>
        <time>2016-12-07T14:23:14.590Z</time>
      </trkpt>
      <trkpt lat="44.83073" lon="5.07365">
        <ele>887.45</ele>
        <time>2016-12-07T14:23:37.588Z</time>
      </trkpt>
      <trkpt lat="44.83096" lon="5.07353">
        <ele>881.95</ele>
        <time>2016-12-07T14:24:02.752Z</time>
      </trkpt>
      <trkpt lat="44.83119" lon="5.07351">
        <ele>877.86</ele>
        <time>2016-12-07T14:24:32.576Z</time>
      </trkpt>
      <trkpt lat="44.83145" lon="5.07354">
        <ele>874.64</ele>
        <time>2016-12-07T14:25:20.585Z</time>
      </trkpt>
      <trkpt lat="44.83167" lon="5.07344">
        <ele>871.78</ele>
        <time>2016-12-07T14:25:33.577Z</time>
      </trkpt>
      <trkpt lat="44.83173" lon="5.07376">
        <ele>872.46</ele>
        <time>2016-12-07T14:26:15.568Z</time>
      </trkpt>
      <trkpt lat="44.83156" lon="5.07398">
        <ele>873.25</ele>
        <time>2016-12-07T14:26:42.563Z</time>
      </trkpt>
      <trkpt lat="44.83151" lon="5.07431">
        <ele>872.99</ele>
        <time>2016-12-07T14:26:57.589Z</time>
      </trkpt>
      <trkpt lat="44.83141" lon="5.07461">
        <ele>873.42</ele>
        <time>2016-12-07T14:27:15.560Z</time>
      </trkpt>
      <trkpt lat="44.83135" lon="5.07494">
        <ele>871.91</ele>
        <time>2016-12-07T14:27:36.575Z</time>
      </trkpt>
      <trkpt lat="44.83135" lon="5.07526">
        <ele>869.62</ele>
        <time>2016-12-07T14:28:02.532Z</time>
      </trkpt>
      <trkpt lat="44.83127" lon="5.07557">
        <ele>868.87</ele>
        <time>2016-12-07T14:28:39.720Z</time>
      </trkpt>
      <trkpt lat="44.83118" lon="5.07588">
        <ele>867.3</ele>
        <time>2016-12-07T14:28:54.754Z</time>
      </trkpt>
      <trkpt lat="44.83105" lon="5.07613">
        <ele>866.99</ele>
        <time>2016-12-07T14:29:14.560Z</time>
      </trkpt>
      <trkpt lat="44.83095" lon="5.07644">
        <ele>865.46</ele>
        <time>2016-12-07T14:29:25.635Z</time>
      </trkpt>
      <trkpt lat="44.83088" lon="5.07677">
        <ele>863.11</ele>
        <time>2016-12-07T14:29:38.558Z</time>
      </trkpt>
      <trkpt lat="44.83081" lon="5.07707">
        <ele>861.23</ele>
        <time>2016-12-07T14:29:52.530Z</time>
      </trkpt>
      <trkpt lat="44.83074" lon="5.07737">
        <ele>859.24</ele>
        <time>2016-12-07T14:30:03.564Z</time>
      </trkpt>
      <trkpt lat="44.83066" lon="5.07768">
        <ele>857.03</ele>
        <time>2016-12-07T14:30:12.568Z</time>
      </trkpt>
      <trkpt lat="44.83063" lon="5.078">
        <ele>852.85</ele>
        <time>2016-12-07T14:30:37.557Z</time>
      </trkpt>
      <trkpt lat="44.83054" lon="5.0783">
        <ele>850.62</ele>
        <time>2016-12-07T14:30:53.564Z</time>
      </trkpt>
      <trkpt lat="44.8305" lon="5.07862">
        <ele>846.74</ele>
        <time>2016-12-07T14:31:17.558Z</time>
      </trkpt>
      <trkpt lat="44.83048" lon="5.07895">
        <ele>842.01</ele>
        <time>2016-12-07T14:31:36.558Z</time>
      </trkpt>
      <trkpt lat="44.83045" lon="5.07927">
        <ele>837.94</ele>
        <time>2016-12-07T14:31:55.564Z</time>
      </trkpt>
      <trkpt lat="44.83053" lon="5.07958">
        <ele>831.68</ele>
        <time>2016-12-07T14:32:26.770Z</time>
      </trkpt>
      <trkpt lat="44.83048" lon="5.0799">
        <ele>828.94</ele>
        <time>2016-12-07T14:32:43.567Z</time>
      </trkpt>
      <trkpt lat="44.83053" lon="5.08022">
        <ele>823.85</ele>
        <time>2016-12-07T14:33:05.538Z</time>
      </trkpt>
      <trkpt lat="44.83063" lon="5.0805">
        <ele>817.84</ele>
        <time>2016-12-07T14:36:10.572Z</time>
      </trkpt>
      <trkpt lat="44.83071" lon="5.08081">
        <ele>811.94</ele>
        <time>2016-12-07T14:36:39.744Z</time>
      </trkpt>
      <trkpt lat="44.83071" lon="5.08115">
        <ele>808.51</ele>
        <time>2016-12-07T14:36:56.794Z</time>
      </trkpt>
      <trkpt lat="44.83063" lon="5.08147">
        <ele>807.24</ele>
        <time>2016-12-07T14:37:15.769Z</time>
      </trkpt>
      <trkpt lat="44.8307" lon="5.08177">
        <ele>802.68</ele>
        <time>2016-12-07T14:37:33.771Z</time>
      </trkpt>
      <trkpt lat="44.83077" lon="5.08207">
        <ele>797.84</ele>
        <time>2016-12-07T14:37:51.852Z</time>
      </trkpt>
      <trkpt lat="44.83094" lon="5.08228">
        <ele>791.25</ele>
        <time>2016-12-07T14:38:26.735Z</time>
      </trkpt>
      <trkpt lat="44.83105" lon="5.08197">
        <ele>789.72</ele>
        <time>2016-12-07T14:41:11.783Z</time>
      </trkpt>
      <trkpt lat="44.83114" lon="5.08168">
        <ele>787.8</ele>
        <time>2016-12-07T14:41:33.588Z</time>
      </trkpt>
      <trkpt lat="44.83132" lon="5.08147">
        <ele>779.41</ele>
        <time>2016-12-07T14:41:50.739Z</time>
      </trkpt>
      <trkpt lat="44.83138" lon="5.08116">
        <ele>775.02</ele>
        <time>2016-12-07T14:43:27.571Z</time>
      </trkpt>
      <trkpt lat="44.8314" lon="5.08084">
        <ele>773.97</ele>
        <time>2016-12-07T14:43:40.737Z</time>
      </trkpt>
      <trkpt lat="44.83142" lon="5.08053">
        <ele>773.06</ele>
        <time>2016-12-07T14:44:00.734Z</time>
      </trkpt>
      <trkpt lat="44.83143" lon="5.08019">
        <ele>773.62</ele>
        <time>2016-12-07T14:44:24.727Z</time>
      </trkpt>
      <trkpt lat="44.83152" lon="5.07988">
        <ele>768.69</ele>
        <time>2016-12-07T14:44:48.706Z</time>
      </trkpt>
      <trkpt lat="44.83157" lon="5.07956">
        <ele>768.21</ele>
        <time>2016-12-07T14:45:13.744Z</time>
      </trkpt>
      <trkpt lat="44.83174" lon="5.07932">
        <ele>761.59</ele>
        <time>2016-12-07T14:45:36.740Z</time>
      </trkpt>
      <trkpt lat="44.83193" lon="5.07915">
        <ele>755.88</ele>
        <time>2016-12-07T14:46:04.736Z</time>
      </trkpt>
      <trkpt lat="44.8321" lon="5.07892">
        <ele>755.69</ele>
        <time>2016-12-07T14:46:21.733Z</time>
      </trkpt>
      <trkpt lat="44.83217" lon="5.07862">
        <ele>763.26</ele>
        <time>2016-12-07T14:46:49.555Z</time>
      </trkpt>
      <trkpt lat="44.83234" lon="5.07883">
        <ele>752.34</ele>
        <time>2016-12-07T14:47:08.575Z</time>
      </trkpt>
      <trkpt lat="44.83239" lon="5.07915">
        <ele>741.22</ele>
        <time>2016-12-07T14:47:31.740Z</time>
      </trkpt>
      <trkpt lat="44.83263" lon="5.07922">
        <ele>734.15</ele>
        <time>2016-12-07T14:47:53.747Z</time>
      </trkpt>
      <trkpt lat="44.83256" lon="5.07955">
        <ele>724.37</ele>
        <time>2016-12-07T14:48:00.720Z</time>
      </trkpt>
      <trkpt lat="44.83277" lon="5.0793">
        <ele>730.67</ele>
        <time>2016-12-07T14:48:07.756Z</time>
      </trkpt>
      <trkpt lat="44.83299" lon="5.07935">
        <ele>728.69</ele>
        <time>2016-12-07T14:48:34.744Z</time>
      </trkpt>
      <trkpt lat="44.83321" lon="5.07929">
        <ele>730.01</ele>
        <time>2016-12-07T14:48:56.749Z</time>
      </trkpt>
      <trkpt lat="44.83343" lon="5.07915">
        <ele>731.4</ele>
        <time>2016-12-07T14:49:11.743Z</time>
      </trkpt>
      <trkpt lat="44.83364" lon="5.07902">
        <ele>730.23</ele>
        <time>2016-12-07T14:49:25.720Z</time>
      </trkpt>
      <trkpt lat="44.83388" lon="5.07888">
        <ele>728.03</ele>
        <time>2016-12-07T14:49:47.582Z</time>
      </trkpt>
      <trkpt lat="44.83405" lon="5.07865">
        <ele>733.28</ele>
        <time>2016-12-07T14:50:14.755Z</time>
      </trkpt>
      <trkpt lat="44.83424" lon="5.07847">
        <ele>734.67</ele>
        <time>2016-12-07T14:50:30.543Z</time>
      </trkpt>
      <trkpt lat="44.83445" lon="5.07828">
        <ele>732.44</ele>
        <time>2016-12-07T14:50:46.564Z</time>
      </trkpt>
      <trkpt lat="44.83459" lon="5.07803">
        <ele>734.38</ele>
        <time>2016-12-07T14:51:05.799Z</time>
      </trkpt>
      <trkpt lat="44.83478" lon="5.07784">
        <ele>731.65</ele>
        <time>2016-12-07T14:51:19.812Z</time>
      </trkpt>
      <trkpt lat="44.83493" lon="5.07758">
        <ele>734.84</ele>
        <time>2016-12-07T14:51:41.716Z</time>
      </trkpt>
      <trkpt lat="44.83511" lon="5.07737">
        <ele>733.23</ele>
        <time>2016-12-07T14:52:00.745Z</time>
      </trkpt>
      <trkpt lat="44.83528" lon="5.0771">
        <ele>732.58</ele>
        <time>2016-12-07T14:52:16.740Z</time>
      </trkpt>
      <trkpt lat="44.83545" lon="5.07688">
        <ele>728.84</ele>
        <time>2016-12-07T14:52:34.793Z</time>
      </trkpt>
      <trkpt lat="44.8355" lon="5.07655">
        <ele>734.17</ele>
        <time>2016-12-07T14:52:53.581Z</time>
      </trkpt>
      <trkpt lat="44.83568" lon="5.07634">
        <ele>727.28</ele>
        <time>2016-12-07T14:53:09.751Z</time>
      </trkpt>
      <trkpt lat="44.83581" lon="5.07606">
        <ele>725.79</ele>
        <time>2016-12-07T14:53:26.549Z</time>
      </trkpt>
      <trkpt lat="44.83591" lon="5.07573">
        <ele>726.88</ele>
        <time>2016-12-07T14:53:43.717Z</time>
      </trkpt>
      <trkpt lat="44.83594" lon="5.07541">
        <ele>731.75</ele>
        <time>2016-12-07T14:53:57.717Z</time>
      </trkpt>
      <trkpt lat="44.83609" lon="5.07514">
        <ele>730.18</ele>
        <time>2016-12-07T14:54:17.646Z</time>
      </trkpt>
      <trkpt lat="44.83613" lon="5.07482">
        <ele>734.73</ele>
        <time>2016-12-07T14:54:36.814Z</time>
      </trkpt>
      <trkpt lat="44.83631" lon="5.07459">
        <ele>733.26</ele>
        <time>2016-12-07T14:54:54.614Z</time>
      </trkpt>
      <trkpt lat="44.83652" lon="5.07446">
        <ele>729.05</ele>
        <time>2016-12-07T14:55:29.838Z</time>
      </trkpt>
      <trkpt lat="44.83675" lon="5.07444">
        <ele>723.75</ele>
        <time>2016-12-07T14:55:57.567Z</time>
      </trkpt>
      <trkpt lat="44.83697" lon="5.07435">
        <ele>723.02</ele>
        <time>2016-12-07T14:56:11.559Z</time>
      </trkpt>
      <trkpt lat="44.83716" lon="5.07416">
        <ele>724.49</ele>
        <time>2016-12-07T14:56:28.758Z</time>
      </trkpt>
      <trkpt lat="44.83729" lon="5.07387">
        <ele>723.32</ele>
        <time>2016-12-07T14:56:44.705Z</time>
      </trkpt>
      <trkpt lat="44.83752" lon="5.07381">
        <ele>721.73</ele>
        <time>2016-12-07T14:57:04.551Z</time>
      </trkpt>
      <trkpt lat="44.83757" lon="5.07346">
        <ele>715.47</ele>
        <time>2016-12-07T14:57:43.721Z</time>
      </trkpt>
      <trkpt lat="44.8378" lon="5.07334">
        <ele>711.65</ele>
        <time>2016-12-07T15:02:19.761Z</time>
      </trkpt>
      <trkpt lat="44.83803" lon="5.07328">
        <ele>708.84</ele>
        <time>2016-12-07T15:02:32.736Z</time>
      </trkpt>
      <trkpt lat="44.83822" lon="5.07308">
        <ele>701.97</ele>
        <time>2016-12-07T15:02:57.556Z</time>
      </trkpt>
      <trkpt lat="44.83846" lon="5.07299">
        <ele>697.98</ele>
        <time>2016-12-07T15:03:28.713Z</time>
      </trkpt>
      <trkpt lat="44.83865" lon="5.07282">
        <ele>692.21</ele>
        <time>2016-12-07T15:03:45.750Z</time>
      </trkpt>
      <trkpt lat="44.83888" lon="5.07273">
        <ele>690.33</ele>
        <time>2016-12-07T15:04:04.723Z</time>
      </trkpt>
      <trkpt lat="44.83906" lon="5.07254">
        <ele>684.41</ele>
        <time>2016-12-07T15:04:28.551Z</time>
      </trkpt>
      <trkpt lat="44.83926" lon="5.07238">
        <ele>678.93</ele>
        <time>2016-12-07T15:04:55.729Z</time>
      </trkpt>
      <trkpt lat="44.83943" lon="5.07216">
        <ele>671.15</ele>
        <time>2016-12-07T15:05:41.586Z</time>
      </trkpt>
      <trkpt lat="44.83962" lon="5.07201">
        <ele>666.13</ele>
        <time>2016-12-07T15:05:59.741Z</time>
      </trkpt>
      <trkpt lat="44.83981" lon="5.0718">
        <ele>660.82</ele>
        <time>2016-12-07T15:06:38.580Z</time>
      </trkpt>
      <trkpt lat="44.83997" lon="5.07157">
        <ele>655.49</ele>
        <time>2016-12-07T15:06:59.719Z</time>
      </trkpt>
      <trkpt lat="44.8401" lon="5.0713">
        <ele>649.82</ele>
        <time>2016-12-07T15:07:25.755Z</time>
      </trkpt>
      <trkpt lat="44.84032" lon="5.07125">
        <ele>647.18</ele>
        <time>2016-12-07T15:07:40.716Z</time>
      </trkpt>
      <trkpt lat="44.84045" lon="5.07097">
        <ele>644.23</ele>
        <time>2016-12-07T15:08:05.761Z</time>
      </trkpt>
      <trkpt lat="44.84022" lon="5.07092">
        <ele>643.61</ele>
        <time>2016-12-07T15:08:57.549Z</time>
      </trkpt>
      <trkpt lat="44.83999" lon="5.07102">
        <ele>645.06</ele>
        <time>2016-12-07T15:09:13.582Z</time>
      </trkpt>
      <trkpt lat="44.83977" lon="5.07108">
        <ele>645.51</ele>
        <time>2016-12-07T15:09:35.763Z</time>
      </trkpt>
      <trkpt lat="44.83953" lon="5.07114">
        <ele>644.81</ele>
        <time>2016-12-07T15:09:57.547Z</time>
      </trkpt>
      <trkpt lat="44.83931" lon="5.07121">
        <ele>644.47</ele>
        <time>2016-12-07T15:10:11.517Z</time>
      </trkpt>
      <trkpt lat="44.83908" lon="5.07122">
        <ele>643.43</ele>
        <time>2016-12-07T15:10:25.537Z</time>
      </trkpt>
      <trkpt lat="44.83884" lon="5.0712">
        <ele>642.09</ele>
        <time>2016-12-07T15:10:44.715Z</time>
      </trkpt>
      <trkpt lat="44.83862" lon="5.07114">
        <ele>639.36</ele>
        <time>2016-12-07T15:11:03.691Z</time>
      </trkpt>
      <trkpt lat="44.83843" lon="5.07096">
        <ele>632.1</ele>
        <time>2016-12-07T15:11:20.755Z</time>
      </trkpt>
      <trkpt lat="44.8382" lon="5.07092">
        <ele>628.94</ele>
        <time>2016-12-07T15:11:42.708Z</time>
      </trkpt>
      <trkpt lat="44.83797" lon="5.07091">
        <ele>625.79</ele>
        <time>2016-12-07T15:11:57.730Z</time>
      </trkpt>
      <trkpt lat="44.83774" lon="5.07097">
        <ele>625.59</ele>
        <time>2016-12-07T15:12:16.756Z</time>
      </trkpt>
      <trkpt lat="44.83752" lon="5.07118">
        <ele>633.13</ele>
        <time>2016-12-07T15:12:41.710Z</time>
      </trkpt>
      <trkpt lat="44.83727" lon="5.07122">
        <ele>637.83</ele>
        <time>2016-12-07T15:13:12.782Z</time>
      </trkpt>
      <trkpt lat="44.83708" lon="5.07103">
        <ele>637.76</ele>
        <time>2016-12-07T15:13:38.728Z</time>
      </trkpt>
      <trkpt lat="44.83702" lon="5.07072">
        <ele>632.32</ele>
        <time>2016-12-07T15:13:57.710Z</time>
      </trkpt>
      <trkpt lat="44.83693" lon="5.0704">
        <ele>626.67</ele>
        <time>2016-12-07T15:14:18.902Z</time>
      </trkpt>
      <trkpt lat="44.83683" lon="5.07012">
        <ele>621.5</ele>
        <time>2016-12-07T15:14:37.705Z</time>
      </trkpt>
      <trkpt lat="44.83668" lon="5.06987">
        <ele>618.91</ele>
        <time>2016-12-07T15:14:55.713Z</time>
      </trkpt>
      <trkpt lat="44.8365" lon="5.06965">
        <ele>618.4</ele>
        <time>2016-12-07T15:15:18.721Z</time>
      </trkpt>
      <trkpt lat="44.83643" lon="5.06935">
        <ele>613.62</ele>
        <time>2016-12-07T15:15:36.743Z</time>
      </trkpt>
      <trkpt lat="44.83632" lon="5.06904">
        <ele>611.83</ele>
        <time>2016-12-07T15:15:59.589Z</time>
      </trkpt>
      <trkpt lat="44.83627" lon="5.06871">
        <ele>607.72</ele>
        <time>2016-12-07T15:16:17.545Z</time>
      </trkpt>
      <trkpt lat="44.83626" lon="5.06838">
        <ele>601.6</ele>
        <time>2016-12-07T15:16:36.601Z</time>
      </trkpt>
      <trkpt lat="44.83603" lon="5.06823">
        <ele>603.07</ele>
        <time>2016-12-07T15:17:02.574Z</time>
      </trkpt>
      <trkpt lat="44.83581" lon="5.0683">
        <ele>608.37</ele>
        <time>2016-12-07T15:17:20.543Z</time>
      </trkpt>
      <trkpt lat="44.83557" lon="5.06834">
        <ele>610.96</ele>
        <time>2016-12-07T15:17:39.576Z</time>
      </trkpt>
      <trkpt lat="44.83534" lon="5.06837">
        <ele>612.18</ele>
        <time>2016-12-07T15:17:55.750Z</time>
      </trkpt>
      <trkpt lat="44.83511" lon="5.06838">
        <ele>612.74</ele>
        <time>2016-12-07T15:18:07.780Z</time>
      </trkpt>
      <trkpt lat="44.83489" lon="5.06831">
        <ele>612.2</ele>
        <time>2016-12-07T15:18:31.753Z</time>
      </trkpt>
      <trkpt lat="44.83471" lon="5.06807">
        <ele>606.78</ele>
        <time>2016-12-07T15:18:50.747Z</time>
      </trkpt>
      <trkpt lat="44.83457" lon="5.06781">
        <ele>601.11</ele>
        <time>2016-12-07T15:19:05.753Z</time>
      </trkpt>
      <trkpt lat="44.83436" lon="5.0677">
        <ele>599.89</ele>
        <time>2016-12-07T15:19:24.734Z</time>
      </trkpt>
      <trkpt lat="44.83413" lon="5.0676">
        <ele>599.18</ele>
        <time>2016-12-07T15:19:43.734Z</time>
      </trkpt>
      <trkpt lat="44.83393" lon="5.06744">
        <ele>597.55</ele>
        <time>2016-12-07T15:20:00.748Z</time>
      </trkpt>
      <trkpt lat="44.83378" lon="5.0672">
        <ele>593.8</ele>
        <time>2016-12-07T15:20:17.550Z</time>
      </trkpt>
      <trkpt lat="44.83371" lon="5.06688">
        <ele>587.61</ele>
        <time>2016-12-07T15:20:32.523Z</time>
      </trkpt>
      <trkpt lat="44.83359" lon="5.06661">
        <ele>584.55</ele>
        <time>2016-12-07T15:20:52.729Z</time>
      </trkpt>
      <trkpt lat="44.83348" lon="5.06632">
        <ele>580.95</ele>
        <time>2016-12-07T15:21:07.713Z</time>
      </trkpt>
      <trkpt lat="44.83329" lon="5.06616">
        <ele>580.04</ele>
        <time>2016-12-07T15:21:26.715Z</time>
      </trkpt>
      <trkpt lat="44.83306" lon="5.06611">
        <ele>578.33</ele>
        <time>2016-12-07T15:21:43.743Z</time>
      </trkpt>
      <trkpt lat="44.83281" lon="5.06617">
        <ele>576.86</ele>
        <time>2016-12-07T15:22:03.751Z</time>
      </trkpt>
      <trkpt lat="44.83258" lon="5.06614">
        <ele>573.68</ele>
        <time>2016-12-07T15:22:28.541Z</time>
      </trkpt>
      <trkpt lat="44.83241" lon="5.06591">
        <ele>567.67</ele>
        <time>2016-12-07T15:22:46.755Z</time>
      </trkpt>
      <trkpt lat="44.83222" lon="5.0657">
        <ele>562.66</ele>
        <time>2016-12-07T15:23:03.742Z</time>
      </trkpt>
      <trkpt lat="44.83201" lon="5.06557">
        <ele>559.75</ele>
        <time>2016-12-07T15:23:31.564Z</time>
      </trkpt>
      <trkpt lat="44.83185" lon="5.06534">
        <ele>554.29</ele>
        <time>2016-12-07T15:25:11.702Z</time>
      </trkpt>
      <trkpt lat="44.83162" lon="5.06525">
        <ele>553.94</ele>
        <time>2016-12-07T15:25:27.542Z</time>
      </trkpt>
      <trkpt lat="44.83138" lon="5.06528">
        <ele>557.78</ele>
        <time>2016-12-07T15:25:45.549Z</time>
      </trkpt>
      <trkpt lat="44.83115" lon="5.06527">
        <ele>561.6</ele>
        <time>2016-12-07T15:26:03.562Z</time>
      </trkpt>
      <trkpt lat="44.83118" lon="5.06494">
        <ele>556.53</ele>
        <time>2016-12-07T15:26:24.736Z</time>
      </trkpt>
      <trkpt lat="44.83105" lon="5.06459">
        <ele>559.49</ele>
        <time>2016-12-07T15:26:38.741Z</time>
      </trkpt>
      <trkpt lat="44.83125" lon="5.06443">
        <ele>552.79</ele>
        <time>2016-12-07T15:26:50.757Z</time>
      </trkpt>
      <trkpt lat="44.83124" lon="5.0641">
        <ele>554.51</ele>
        <time>2016-12-07T15:27:13.738Z</time>
      </trkpt>
      <trkpt lat="44.83131" lon="5.06379">
        <ele>555.16</ele>
        <time>2016-12-07T15:27:33.574Z</time>
      </trkpt>
      <trkpt lat="44.8314" lon="5.06349">
        <ele>555.4</ele>
        <time>2016-12-07T15:27:46.736Z</time>
      </trkpt>
      <trkpt lat="44.83146" lon="5.06318">
        <ele>555.53</ele>
        <time>2016-12-07T15:28:09.722Z</time>
      </trkpt>
      <trkpt lat="44.83153" lon="5.06287">
        <ele>556.27</ele>
        <time>2016-12-07T15:28:21.576Z</time>
      </trkpt>
      <trkpt lat="44.83159" lon="5.06249">
        <ele>556.79</ele>
        <time>2016-12-07T15:28:44.543Z</time>
      </trkpt>
      <trkpt lat="44.83173" lon="5.06224">
        <ele>553.21</ele>
        <time>2016-12-07T15:29:38.728Z</time>
      </trkpt>
      <trkpt lat="44.83152" lon="5.06211">
        <ele>555.18</ele>
        <time>2016-12-07T15:30:13.547Z</time>
      </trkpt>
      <trkpt lat="44.83128" lon="5.06208">
        <ele>556.21</ele>
        <time>2016-12-07T15:30:37.756Z</time>
      </trkpt>
      <trkpt lat="44.83101" lon="5.06216">
        <ele>557.71</ele>
        <time>2016-12-07T15:30:54.741Z</time>
      </trkpt>
      <trkpt lat="44.83079" lon="5.06228">
        <ele>559.99</ele>
        <time>2016-12-07T15:31:20.578Z</time>
      </trkpt>
      <trkpt lat="44.83057" lon="5.06235">
        <ele>558.54</ele>
        <time>2016-12-07T15:32:37.714Z</time>
      </trkpt>
      <trkpt lat="44.83036" lon="5.0625">
        <ele>558.31</ele>
        <time>2016-12-07T15:32:50.717Z</time>
      </trkpt>
      <trkpt lat="44.83016" lon="5.06262">
        <ele>558.09</ele>
        <time>2016-12-07T15:33:04.700Z</time>
      </trkpt>
      <trkpt lat="44.82995" lon="5.06274">
        <ele>560</ele>
        <time>2016-12-07T15:33:23.754Z</time>
      </trkpt>
      <trkpt lat="44.82971" lon="5.06278">
        <ele>561.38</ele>
        <time>2016-12-07T15:33:44.723Z</time>
      </trkpt>
      <trkpt lat="44.82946" lon="5.06278">
        <ele>561.96</ele>
        <time>2016-12-07T15:33:59.739Z</time>
      </trkpt>
      <trkpt lat="44.82922" lon="5.06275">
        <ele>561.67</ele>
        <time>2016-12-07T15:34:18.723Z</time>
      </trkpt>
      <trkpt lat="44.82901" lon="5.0626">
        <ele>557.35</ele>
        <time>2016-12-07T15:34:37.730Z</time>
      </trkpt>
      <trkpt lat="44.82881" lon="5.06242">
        <ele>553.35</ele>
        <time>2016-12-07T15:34:56.728Z</time>
      </trkpt>
      <trkpt lat="44.82864" lon="5.06221">
        <ele>548.22</ele>
        <time>2016-12-07T15:35:14.729Z</time>
      </trkpt>
      <trkpt lat="44.82841" lon="5.06215">
        <ele>546.61</ele>
        <time>2016-12-07T15:35:33.736Z</time>
      </trkpt>
      <trkpt lat="44.82818" lon="5.06224">
        <ele>546.18</ele>
        <time>2016-12-07T15:35:59.704Z</time>
      </trkpt>
      <trkpt lat="44.82801" lon="5.06249">
        <ele>548.1</ele>
        <time>2016-12-07T15:37:04.727Z</time>
      </trkpt>
      <trkpt lat="44.82781" lon="5.06265">
        <ele>546.01</ele>
        <time>2016-12-07T15:37:21.658Z</time>
      </trkpt>
      <trkpt lat="44.82762" lon="5.06285">
        <ele>545.47</ele>
        <time>2016-12-07T15:38:00.727Z</time>
      </trkpt>
      <trkpt lat="44.82744" lon="5.06305">
        <ele>547.65</ele>
        <time>2016-12-07T15:38:13.783Z</time>
      </trkpt>
      <trkpt lat="44.82731" lon="5.06332">
        <ele>553.42</ele>
        <time>2016-12-07T15:38:30.746Z</time>
      </trkpt>
      <trkpt lat="44.82725" lon="5.063">
        <ele>548.7</ele>
        <time>2016-12-07T15:38:58.723Z</time>
      </trkpt>
      <trkpt lat="44.8272" lon="5.06269">
        <ele>544.26</ele>
        <time>2016-12-07T15:39:15.725Z</time>
      </trkpt>
      <trkpt lat="44.82709" lon="5.06237">
        <ele>540.91</ele>
        <time>2016-12-07T15:39:30.572Z</time>
      </trkpt>
      <trkpt lat="44.82713" lon="5.06206">
        <ele>534.29</ele>
        <time>2016-12-07T15:39:48.808Z</time>
      </trkpt>
      <trkpt lat="44.82697" lon="5.0618">
        <ele>533.02</ele>
        <time>2016-12-07T15:40:02.717Z</time>
      </trkpt>
      <trkpt lat="44.82696" lon="5.06145">
        <ele>529.74</ele>
        <time>2016-12-07T15:40:22.725Z</time>
      </trkpt>
      <trkpt lat="44.82694" lon="5.0611">
        <ele>528.45</ele>
        <time>2016-12-07T15:40:41.741Z</time>
      </trkpt>
      <trkpt lat="44.82698" lon="5.06078">
        <ele>526.75</ele>
        <time>2016-12-07T15:41:04.733Z</time>
      </trkpt>
      <trkpt lat="44.82706" lon="5.06048">
        <ele>525.03</ele>
        <time>2016-12-07T15:41:23.738Z</time>
      </trkpt>
      <trkpt lat="44.82702" lon="5.06016">
        <ele>525.13</ele>
        <time>2016-12-07T15:41:57.596Z</time>
      </trkpt>
      <trkpt lat="44.82704" lon="5.05982">
        <ele>523.67</ele>
        <time>2016-12-07T15:42:29.534Z</time>
      </trkpt>
      <trkpt lat="44.82704" lon="5.0595">
        <ele>522</ele>
        <time>2016-12-07T15:42:48.749Z</time>
      </trkpt>
      <trkpt lat="44.8271" lon="5.05919">
        <ele>520.27</ele>
        <time>2016-12-07T15:43:24.610Z</time>
      </trkpt>
      <trkpt lat="44.82715" lon="5.05885">
        <ele>518.14</ele>
        <time>2016-12-07T15:43:51.569Z</time>
      </trkpt>
      <trkpt lat="44.82724" lon="5.05855">
        <ele>517.72</ele>
        <time>2016-12-07T15:44:08.732Z</time>
      </trkpt>
      <trkpt lat="44.82724" lon="5.05821">
        <ele>514.74</ele>
        <time>2016-12-07T15:44:28.730Z</time>
      </trkpt>
      <trkpt lat="44.82716" lon="5.0579">
        <ele>508.4</ele>
        <time>2016-12-07T15:45:00.769Z</time>
      </trkpt>
      <trkpt lat="44.82715" lon="5.05754">
        <ele>503.4</ele>
        <time>2016-12-07T15:45:19.748Z</time>
      </trkpt>
      <trkpt lat="44.82706" lon="5.05723">
        <ele>494.35</ele>
        <time>2016-12-07T15:45:49.726Z</time>
      </trkpt>
      <trkpt lat="44.82701" lon="5.05688">
        <ele>486.26</ele>
        <time>2016-12-07T15:47:01.727Z</time>
      </trkpt>
      <trkpt lat="44.82701" lon="5.05656">
        <ele>481.63</ele>
        <time>2016-12-07T15:47:19.788Z</time>
      </trkpt>
      <trkpt lat="44.82689" lon="5.05626">
        <ele>474.23</ele>
        <time>2016-12-07T15:47:41.820Z</time>
      </trkpt>
      <trkpt lat="44.82688" lon="5.05594">
        <ele>470.09</ele>
        <time>2016-12-07T15:48:36.728Z</time>
      </trkpt>
      <trkpt lat="44.82681" lon="5.0556">
        <ele>463.62</ele>
        <time>2016-12-07T15:48:50.714Z</time>
      </trkpt>
      <trkpt lat="44.82683" lon="5.05529">
        <ele>460.04</ele>
        <time>2016-12-07T15:49:05.692Z</time>
      </trkpt>
      <trkpt lat="44.82668" lon="5.05506">
        <ele>453.01</ele>
        <time>2016-12-07T15:49:24.758Z</time>
      </trkpt>
      <trkpt lat="44.82671" lon="5.05474">
        <ele>448.64</ele>
        <time>2016-12-07T15:49:57.591Z</time>
      </trkpt>
      <trkpt lat="44.82684" lon="5.05445">
        <ele>444.74</ele>
        <time>2016-12-07T15:50:26.719Z</time>
      </trkpt>
      <trkpt lat="44.82706" lon="5.0544">
        <ele>446.26</ele>
        <time>2016-12-07T15:50:33.718Z</time>
      </trkpt>
      <trkpt lat="44.82714" lon="5.0541">
        <ele>440.84</ele>
        <time>2016-12-07T15:50:52.717Z</time>
      </trkpt>
      <trkpt lat="44.82691" lon="5.05408">
        <ele>438.71</ele>
        <time>2016-12-07T15:51:26.786Z</time>
      </trkpt>
      <trkpt lat="44.82672" lon="5.05388">
        <ele>434.8</ele>
        <time>2016-12-07T15:51:43.713Z</time>
      </trkpt>
      <trkpt lat="44.82664" lon="5.05355">
        <ele>430.99</ele>
        <time>2016-12-07T15:51:58.543Z</time>
      </trkpt>
      <trkpt lat="44.82649" lon="5.05325">
        <ele>427.46</ele>
        <time>2016-12-07T15:52:41.537Z</time>
      </trkpt>
      <trkpt lat="44.82669" lon="5.05303">
        <ele>426.25</ele>
        <time>2016-12-07T15:53:15.539Z</time>
      </trkpt>
      <trkpt lat="44.82692" lon="5.05302">
        <ele>427.6</ele>
        <time>2016-12-07T15:54:03.725Z</time>
      </trkpt>
      <trkpt lat="44.82677" lon="5.05274">
        <ele>424.26</ele>
        <time>2016-12-07T15:55:22.679Z</time>
      </trkpt>
      <trkpt lat="44.82658" lon="5.05257">
        <ele>422.07</ele>
        <time>2016-12-07T15:55:38.793Z</time>
      </trkpt>
      <trkpt lat="44.82647" lon="5.05228">
        <ele>419.49</ele>
        <time>2016-12-07T15:55:53.564Z</time>
      </trkpt>
      <trkpt lat="44.82648" lon="5.05196">
        <ele>417.67</ele>
        <time>2016-12-07T15:56:11.631Z</time>
      </trkpt>
      <trkpt lat="44.82637" lon="5.05168">
        <ele>415.9</ele>
        <time>2016-12-07T15:56:26.691Z</time>
      </trkpt>
      <trkpt lat="44.82624" lon="5.0514">
        <ele>416.18</ele>
        <time>2016-12-07T15:56:42.601Z</time>
      </trkpt>
      <trkpt lat="44.8261" lon="5.05113">
        <ele>417.26</ele>
        <time>2016-12-07T15:57:06.574Z</time>
      </trkpt>
      <trkpt lat="44.82597" lon="5.05085">
        <ele>417.23</ele>
        <time>2016-12-07T15:57:23.536Z</time>
      </trkpt>
      <trkpt lat="44.82576" lon="5.05071">
        <ele>413.73</ele>
        <time>2016-12-07T15:57:46.709Z</time>
      </trkpt>
      <trkpt lat="44.82562" lon="5.05046">
        <ele>410.54</ele>
        <time>2016-12-07T15:58:08.723Z</time>
      </trkpt>
      <trkpt lat="44.82546" lon="5.05021">
        <ele>407.06</ele>
        <time>2016-12-07T15:58:24.721Z</time>
      </trkpt>
      <trkpt lat="44.82562" lon="5.04994">
        <ele>407.7</ele>
        <time>2016-12-07T15:58:42.745Z</time>
      </trkpt>
      <trkpt lat="44.8258" lon="5.0497">
        <ele>406.09</ele>
        <time>2016-12-07T15:59:07.687Z</time>
      </trkpt>
      <trkpt lat="44.8259" lon="5.04937">
        <ele>400.71</ele>
        <time>2016-12-07T15:59:22.703Z</time>
      </trkpt>
      <trkpt lat="44.82598" lon="5.04905">
        <ele>396.42</ele>
        <time>2016-12-07T15:59:42.722Z</time>
      </trkpt>
      <trkpt lat="44.82605" lon="5.04873">
        <ele>393.11</ele>
        <time>2016-12-07T16:00:02.278Z</time>
      </trkpt>
      <trkpt lat="44.82612" lon="5.04843">
        <ele>391.01</ele>
        <time>2016-12-07T16:00:20.702Z</time>
      </trkpt>
      <trkpt lat="44.82627" lon="5.04816">
        <ele>390.44</ele>
        <time>2016-12-07T16:00:39.686Z</time>
      </trkpt>
      <trkpt lat="44.82639" lon="5.04787">
        <ele>390.41</ele>
        <time>2016-12-07T16:00:57.703Z</time>
      </trkpt>
      <trkpt lat="44.82629" lon="5.04758">
        <ele>389.38</ele>
        <time>2016-12-07T16:01:13.667Z</time>
      </trkpt>
      <trkpt lat="44.82637" lon="5.04728">
        <ele>390.86</ele>
        <time>2016-12-07T16:01:28.526Z</time>
      </trkpt>
      <trkpt lat="44.82637" lon="5.04693">
        <ele>392.66</ele>
        <time>2016-12-07T16:01:51.713Z</time>
      </trkpt>
      <trkpt lat="44.82634" lon="5.04661">
        <ele>394.4</ele>
        <time>2016-12-07T16:02:07.718Z</time>
      </trkpt>
      <trkpt lat="44.8262" lon="5.04636">
        <ele>395.14</ele>
        <time>2016-12-07T16:02:23.707Z</time>
      </trkpt>
      <trkpt lat="44.82603" lon="5.04615">
        <ele>394.92</ele>
        <time>2016-12-07T16:02:41.694Z</time>
      </trkpt>
      <trkpt lat="44.82588" lon="5.04591">
        <ele>394.31</ele>
        <time>2016-12-07T16:02:59.750Z</time>
      </trkpt>
      <trkpt lat="44.82565" lon="5.04586">
        <ele>391.5</ele>
        <time>2016-12-07T16:03:17.560Z</time>
      </trkpt>
      <trkpt lat="44.82548" lon="5.04563">
        <ele>389.09</ele>
        <time>2016-12-07T16:03:31.785Z</time>
      </trkpt>
      <trkpt lat="44.8255" lon="5.04531">
        <ele>389.25</ele>
        <time>2016-12-07T16:03:48.563Z</time>
      </trkpt>
      <trkpt lat="44.82553" lon="5.04498">
        <ele>390.12</ele>
        <time>2016-12-07T16:04:04.694Z</time>
      </trkpt>
      <trkpt lat="44.8255" lon="5.04465">
        <ele>391.57</ele>
        <time>2016-12-07T16:04:20.566Z</time>
      </trkpt>
      <trkpt lat="44.82539" lon="5.04436">
        <ele>392.13</ele>
        <time>2016-12-07T16:04:37.722Z</time>
      </trkpt>
      <trkpt lat="44.82521" lon="5.04415">
        <ele>390.74</ele>
        <time>2016-12-07T16:04:49.525Z</time>
      </trkpt>
      <trkpt lat="44.82504" lon="5.04393">
        <ele>388.64</ele>
        <time>2016-12-07T16:05:06.705Z</time>
      </trkpt>
      <trkpt lat="44.82482" lon="5.04383">
        <ele>387.08</ele>
        <time>2016-12-07T16:05:23.656Z</time>
      </trkpt>
      <trkpt lat="44.82466" lon="5.0436">
        <ele>385.21</ele>
        <time>2016-12-07T16:05:48.554Z</time>
      </trkpt>
      <trkpt lat="44.82451" lon="5.04335">
        <ele>382.88</ele>
        <time>2016-12-07T16:06:13.722Z</time>
      </trkpt>
      <trkpt lat="44.82442" lon="5.04304">
        <ele>377.89</ele>
        <time>2016-12-07T16:06:44.551Z</time>
      </trkpt>
      <trkpt lat="44.82427" lon="5.0428">
        <ele>373.72</ele>
        <time>2016-12-07T16:07:01.533Z</time>
      </trkpt>
      <trkpt lat="44.8241" lon="5.04257">
        <ele>370.1</ele>
        <time>2016-12-07T16:07:22.653Z</time>
      </trkpt>
      <trkpt lat="44.82396" lon="5.04228">
        <ele>365.84</ele>
        <time>2016-12-07T16:07:39.791Z</time>
      </trkpt>
      <trkpt lat="44.82377" lon="5.04207">
        <ele>363.3</ele>
        <time>2016-12-07T16:08:00.718Z</time>
      </trkpt>
      <trkpt lat="44.82363" lon="5.0418">
        <ele>357.61</ele>
        <time>2016-12-07T16:08:22.545Z</time>
      </trkpt>
      <trkpt lat="44.82373" lon="5.0415">
        <ele>349.63</ele>
        <time>2016-12-07T16:08:42.573Z</time>
      </trkpt>
      <trkpt lat="44.82367" lon="5.04118">
        <ele>342.63</ele>
        <time>2016-12-07T16:09:04.813Z</time>
      </trkpt>
      <trkpt lat="44.82356" lon="5.0409">
        <ele>337.47</ele>
        <time>2016-12-07T16:09:20.715Z</time>
      </trkpt>
      <trkpt lat="44.82342" lon="5.04063">
        <ele>333.87</ele>
        <time>2016-12-07T16:09:36.743Z</time>
      </trkpt>
      <trkpt lat="44.82333" lon="5.04031">
        <ele>330.77</ele>
        <time>2016-12-07T16:09:55.700Z</time>
      </trkpt>
      <trkpt lat="44.82327" lon="5.04">
        <ele>328.29</ele>
        <time>2016-12-07T16:10:15.710Z</time>
      </trkpt>
      <trkpt lat="44.82313" lon="5.03971">
        <ele>326.67</ele>
        <time>2016-12-07T16:10:32.713Z</time>
      </trkpt>
      <trkpt lat="44.82338" lon="5.03974">
        <ele>325.48</ele>
        <time>2016-12-07T16:11:02.692Z</time>
      </trkpt>
      <trkpt lat="44.8236" lon="5.03968">
        <ele>322.67</ele>
        <time>2016-12-07T16:11:21.557Z</time>
      </trkpt>
      <trkpt lat="44.82375" lon="5.03943">
        <ele>318.92</ele>
        <time>2016-12-07T16:11:35.700Z</time>
      </trkpt>
      <trkpt lat="44.82362" lon="5.03917">
        <ele>319.05</ele>
        <time>2016-12-07T16:12:02.782Z</time>
      </trkpt>
      <trkpt lat="44.82364" lon="5.03918">
        <ele>318.8</ele>
        <time>2016-12-07T16:12:35.682Z</time>
      </trkpt>
    </trkseg>
  </trk>
</gpx>